Hlavní strana
METAR-TAF:

METAR-TAF

Letiště :

Ålesund, Norsko

zeměpisná šířka: 62-34N, zeměpisná délka: 006-07E, výška: 2 m

Aktuální stav počasí

Zpráva byla vytvořena před 25 minutami, v 04:20 UTC
Jihojihovýchodní vítr 6 kt, proměnlivý mezi východním a jižním
Teplota 3°C
Vlhkost vzduchu 70%
Tlak 1015 hPa
Viditelnost 10 km a více

METAR: ENAL 180420Z AUTO 15006KT 100V170 9999 FEW120/// 03/M02 Q1015

Čas: 05:45 (04:45 UTC)

Předpověď počasí

Zpráva byla vytvořena před 2 hodinami a 45 minutami, v 02:00 UTC
Předpověď platná od 18 v 03 UTC do 18 v 12 UTC
Jihojihovýchodní vítr 8 kt
Viditelnost 10 km a více
Žádná oblačnost pod 1500 m, nevyskytují se cumulonimby.

TAF: ENAL 180200Z 1803/1812 15008KT CAVOK

Stav a předpovědi počasí z více než 4 000 letišť (zprávy METAR a TAF).

Červené a žluté tečky na mapě představují dostupné meteorologické stanice.

Když kurzor umístíte na tečku, zobrazí se název stanice.

Pak kliknutím zobrazíte stav a předpověď počasí.

Chcete-li změnit mapu, kliknutím na zelené tlačítko se znaménkem +mapu přiblížíte, kliknutím na zelené tlačítko se znaménkem – mapu oddálíte a kliknutím na zelené šipky přejdete na sousední mapy.


METAR-TAF: